<?xml version="1.0" encoding="UTF-8" standalone="no" ?>
<gpx xmlns="http://www.topografix.com/GPX/1/1" xmlns:xsi="http://www.w3.org/2001/XMLSchema-instance" xsi:schemaLocation="http://www.topografix.com/GPX/1/1 http://www.topografix.com/GPX/1/1/gpx.xsd" version="1.1" creator="VisuGPX - https://www.visugpx.com">
  <metadata>
    <name>Croix de provence sentier inoucha bleu</name>
  </metadata>
  <trk>
    <name><![CDATA[Randonnée du 15/10/2022 à 10:38]]></name>
    <trkseg>
      <trkpt lat="43.54127" lon="5.53212">
        <ele>352</ele>
        <time>2022-10-15T10:38:36+02:00</time>
      </trkpt>
      <trkpt lat="43.54136" lon="5.53241">
        <ele>351</ele>
        <time>2022-10-15T10:39:40+02:00</time>
      </trkpt>
      <trkpt lat="43.54154" lon="5.53262">
        <ele>352</ele>
        <time>2022-10-15T10:40:05+02:00</time>
      </trkpt>
      <trkpt lat="43.54159" lon="5.53294">
        <ele>350</ele>
        <time>2022-10-15T10:40:22+02:00</time>
      </trkpt>
      <trkpt lat="43.54161" lon="5.53326">
        <ele>350</ele>
        <time>2022-10-15T10:40:39+02:00</time>
      </trkpt>
      <trkpt lat="43.54163" lon="5.53359">
        <ele>351</ele>
        <time>2022-10-15T10:41:00+02:00</time>
      </trkpt>
      <trkpt lat="43.54159" lon="5.53391">
        <ele>350</ele>
        <time>2022-10-15T10:41:20+02:00</time>
      </trkpt>
      <trkpt lat="43.54148" lon="5.53418">
        <ele>348</ele>
        <time>2022-10-15T10:41:36+02:00</time>
      </trkpt>
      <trkpt lat="43.54138" lon="5.53447">
        <ele>343</ele>
        <time>2022-10-15T10:41:55+02:00</time>
      </trkpt>
      <trkpt lat="43.54142" lon="5.53479">
        <ele>343</ele>
        <time>2022-10-15T10:42:13+02:00</time>
      </trkpt>
      <trkpt lat="43.5415" lon="5.53508">
        <ele>340</ele>
        <time>2022-10-15T10:42:27+02:00</time>
      </trkpt>
      <trkpt lat="43.54153" lon="5.53539">
        <ele>336</ele>
        <time>2022-10-15T10:42:42+02:00</time>
      </trkpt>
      <trkpt lat="43.54147" lon="5.53569">
        <ele>329</ele>
        <time>2022-10-15T10:42:57+02:00</time>
      </trkpt>
      <trkpt lat="43.54131" lon="5.53593">
        <ele>322</ele>
        <time>2022-10-15T10:43:25+02:00</time>
      </trkpt>
      <trkpt lat="43.54116" lon="5.53617">
        <ele>308</ele>
        <time>2022-10-15T10:43:56+02:00</time>
      </trkpt>
      <trkpt lat="43.54094" lon="5.53628">
        <ele>299</ele>
        <time>2022-10-15T10:44:10+02:00</time>
      </trkpt>
      <trkpt lat="43.54072" lon="5.53637">
        <ele>291</ele>
        <time>2022-10-15T10:44:24+02:00</time>
      </trkpt>
      <trkpt lat="43.5405" lon="5.53646">
        <ele>295</ele>
        <time>2022-10-15T10:44:44+02:00</time>
      </trkpt>
      <trkpt lat="43.54027" lon="5.53653">
        <ele>302</ele>
        <time>2022-10-15T10:45:04+02:00</time>
      </trkpt>
      <trkpt lat="43.54003" lon="5.5365">
        <ele>309</ele>
        <time>2022-10-15T10:45:23+02:00</time>
      </trkpt>
      <trkpt lat="43.53982" lon="5.53638">
        <ele>324</ele>
        <time>2022-10-15T10:45:42+02:00</time>
      </trkpt>
      <trkpt lat="43.53961" lon="5.53622">
        <ele>334</ele>
        <time>2022-10-15T10:46:02+02:00</time>
      </trkpt>
      <trkpt lat="43.53942" lon="5.5364">
        <ele>350</ele>
        <time>2022-10-15T10:46:53+02:00</time>
      </trkpt>
      <trkpt lat="43.53936" lon="5.5367">
        <ele>357</ele>
        <time>2022-10-15T10:47:24+02:00</time>
      </trkpt>
      <trkpt lat="43.53925" lon="5.53697">
        <ele>363</ele>
        <time>2022-10-15T10:47:52+02:00</time>
      </trkpt>
      <trkpt lat="43.5391" lon="5.53721">
        <ele>366</ele>
        <time>2022-10-15T10:48:21+02:00</time>
      </trkpt>
      <trkpt lat="43.53901" lon="5.53749">
        <ele>369</ele>
        <time>2022-10-15T10:48:48+02:00</time>
      </trkpt>
      <trkpt lat="43.53884" lon="5.53771">
        <ele>369</ele>
        <time>2022-10-15T10:49:13+02:00</time>
      </trkpt>
      <trkpt lat="43.53867" lon="5.53792">
        <ele>373</ele>
        <time>2022-10-15T10:49:37+02:00</time>
      </trkpt>
      <trkpt lat="43.53852" lon="5.53817">
        <ele>372</ele>
        <time>2022-10-15T10:49:56+02:00</time>
      </trkpt>
      <trkpt lat="43.53836" lon="5.5384">
        <ele>372</ele>
        <time>2022-10-15T10:50:15+02:00</time>
      </trkpt>
      <trkpt lat="43.5382" lon="5.53862">
        <ele>371</ele>
        <time>2022-10-15T10:50:33+02:00</time>
      </trkpt>
      <trkpt lat="43.53803" lon="5.53883">
        <ele>374</ele>
        <time>2022-10-15T10:50:56+02:00</time>
      </trkpt>
      <trkpt lat="43.53795" lon="5.53913">
        <ele>373</ele>
        <time>2022-10-15T10:51:12+02:00</time>
      </trkpt>
      <trkpt lat="43.53781" lon="5.53938">
        <ele>375</ele>
        <time>2022-10-15T10:51:33+02:00</time>
      </trkpt>
      <trkpt lat="43.53766" lon="5.53962">
        <ele>377</ele>
        <time>2022-10-15T10:51:53+02:00</time>
      </trkpt>
      <trkpt lat="43.5375" lon="5.53984">
        <ele>376</ele>
        <time>2022-10-15T10:52:08+02:00</time>
      </trkpt>
      <trkpt lat="43.53733" lon="5.54004">
        <ele>377</ele>
        <time>2022-10-15T10:52:29+02:00</time>
      </trkpt>
      <trkpt lat="43.53715" lon="5.54024">
        <ele>378</ele>
        <time>2022-10-15T10:52:49+02:00</time>
      </trkpt>
      <trkpt lat="43.53695" lon="5.54039">
        <ele>381</ele>
        <time>2022-10-15T10:53:06+02:00</time>
      </trkpt>
      <trkpt lat="43.53677" lon="5.54059">
        <ele>383</ele>
        <time>2022-10-15T10:53:22+02:00</time>
      </trkpt>
      <trkpt lat="43.5366" lon="5.54079">
        <ele>383</ele>
        <time>2022-10-15T10:53:43+02:00</time>
      </trkpt>
      <trkpt lat="43.53643" lon="5.54101">
        <ele>386</ele>
        <time>2022-10-15T10:54:06+02:00</time>
      </trkpt>
      <trkpt lat="43.53624" lon="5.5412">
        <ele>387</ele>
        <time>2022-10-15T10:54:26+02:00</time>
      </trkpt>
      <trkpt lat="43.53606" lon="5.54138">
        <ele>389</ele>
        <time>2022-10-15T10:54:49+02:00</time>
      </trkpt>
      <trkpt lat="43.53587" lon="5.54157">
        <ele>392</ele>
        <time>2022-10-15T10:55:10+02:00</time>
      </trkpt>
      <trkpt lat="43.53569" lon="5.54176">
        <ele>393</ele>
        <time>2022-10-15T10:55:34+02:00</time>
      </trkpt>
      <trkpt lat="43.53551" lon="5.54196">
        <ele>394</ele>
        <time>2022-10-15T10:55:55+02:00</time>
      </trkpt>
      <trkpt lat="43.53533" lon="5.54216">
        <ele>394</ele>
        <time>2022-10-15T10:56:18+02:00</time>
      </trkpt>
      <trkpt lat="43.53516" lon="5.54236">
        <ele>395</ele>
        <time>2022-10-15T10:56:38+02:00</time>
      </trkpt>
      <trkpt lat="43.53503" lon="5.54262">
        <ele>396</ele>
        <time>2022-10-15T10:56:57+02:00</time>
      </trkpt>
      <trkpt lat="43.53489" lon="5.54287">
        <ele>395</ele>
        <time>2022-10-15T10:57:18+02:00</time>
      </trkpt>
      <trkpt lat="43.53476" lon="5.54313">
        <ele>393</ele>
        <time>2022-10-15T10:57:36+02:00</time>
      </trkpt>
      <trkpt lat="43.5346" lon="5.54334">
        <ele>394</ele>
        <time>2022-10-15T10:57:52+02:00</time>
      </trkpt>
      <trkpt lat="43.53449" lon="5.54363">
        <ele>392</ele>
        <time>2022-10-15T10:58:12+02:00</time>
      </trkpt>
      <trkpt lat="43.53442" lon="5.54395">
        <ele>390</ele>
        <time>2022-10-15T10:58:23+02:00</time>
      </trkpt>
      <trkpt lat="43.53455" lon="5.54423">
        <ele>388</ele>
        <time>2022-10-15T10:58:56+02:00</time>
      </trkpt>
      <trkpt lat="43.53468" lon="5.54449">
        <ele>385</ele>
        <time>2022-10-15T10:59:13+02:00</time>
      </trkpt>
      <trkpt lat="43.53489" lon="5.54464">
        <ele>382</ele>
        <time>2022-10-15T10:59:28+02:00</time>
      </trkpt>
      <trkpt lat="43.5351" lon="5.54452">
        <ele>380</ele>
        <time>2022-10-15T10:59:42+02:00</time>
      </trkpt>
      <trkpt lat="43.5353" lon="5.54434">
        <ele>378</ele>
        <time>2022-10-15T10:59:59+02:00</time>
      </trkpt>
      <trkpt lat="43.53546" lon="5.54413">
        <ele>376</ele>
        <time>2022-10-15T11:00:14+02:00</time>
      </trkpt>
      <trkpt lat="43.53561" lon="5.54389">
        <ele>373</ele>
        <time>2022-10-15T11:00:28+02:00</time>
      </trkpt>
      <trkpt lat="43.53576" lon="5.54365">
        <ele>370</ele>
        <time>2022-10-15T11:00:43+02:00</time>
      </trkpt>
      <trkpt lat="43.53591" lon="5.54341">
        <ele>368</ele>
        <time>2022-10-15T11:00:58+02:00</time>
      </trkpt>
      <trkpt lat="43.53607" lon="5.54317">
        <ele>367</ele>
        <time>2022-10-15T11:01:14+02:00</time>
      </trkpt>
      <trkpt lat="43.53626" lon="5.54298">
        <ele>364</ele>
        <time>2022-10-15T11:01:32+02:00</time>
      </trkpt>
      <trkpt lat="43.53641" lon="5.54273">
        <ele>360</ele>
        <time>2022-10-15T11:01:59+02:00</time>
      </trkpt>
      <trkpt lat="43.53663" lon="5.54263">
        <ele>357</ele>
        <time>2022-10-15T11:02:15+02:00</time>
      </trkpt>
      <trkpt lat="43.53673" lon="5.54292">
        <ele>354</ele>
        <time>2022-10-15T11:03:38+02:00</time>
      </trkpt>
      <trkpt lat="43.53665" lon="5.54322">
        <ele>357</ele>
        <time>2022-10-15T11:03:53+02:00</time>
      </trkpt>
      <trkpt lat="43.53654" lon="5.5435">
        <ele>360</ele>
        <time>2022-10-15T11:04:08+02:00</time>
      </trkpt>
      <trkpt lat="43.53669" lon="5.54375">
        <ele>361</ele>
        <time>2022-10-15T11:04:28+02:00</time>
      </trkpt>
      <trkpt lat="43.53687" lon="5.54397">
        <ele>363</ele>
        <time>2022-10-15T11:04:46+02:00</time>
      </trkpt>
      <trkpt lat="43.53698" lon="5.54424">
        <ele>366</ele>
        <time>2022-10-15T11:05:04+02:00</time>
      </trkpt>
      <trkpt lat="43.53708" lon="5.54452">
        <ele>369</ele>
        <time>2022-10-15T11:05:24+02:00</time>
      </trkpt>
      <trkpt lat="43.53716" lon="5.54482">
        <ele>374</ele>
        <time>2022-10-15T11:05:44+02:00</time>
      </trkpt>
      <trkpt lat="43.53726" lon="5.54511">
        <ele>379</ele>
        <time>2022-10-15T11:06:05+02:00</time>
      </trkpt>
      <trkpt lat="43.53726" lon="5.54542">
        <ele>382</ele>
        <time>2022-10-15T11:06:27+02:00</time>
      </trkpt>
      <trkpt lat="43.53734" lon="5.54572">
        <ele>385</ele>
        <time>2022-10-15T11:06:47+02:00</time>
      </trkpt>
      <trkpt lat="43.53748" lon="5.54597">
        <ele>387</ele>
        <time>2022-10-15T11:07:09+02:00</time>
      </trkpt>
      <trkpt lat="43.53761" lon="5.54623">
        <ele>393</ele>
        <time>2022-10-15T11:07:31+02:00</time>
      </trkpt>
      <trkpt lat="43.5377" lon="5.54652">
        <ele>398</ele>
        <time>2022-10-15T11:08:00+02:00</time>
      </trkpt>
      <trkpt lat="43.53773" lon="5.54684">
        <ele>401</ele>
        <time>2022-10-15T11:08:22+02:00</time>
      </trkpt>
      <trkpt lat="43.53781" lon="5.54713">
        <ele>405</ele>
        <time>2022-10-15T11:08:45+02:00</time>
      </trkpt>
      <trkpt lat="43.53791" lon="5.54741">
        <ele>411</ele>
        <time>2022-10-15T11:09:10+02:00</time>
      </trkpt>
      <trkpt lat="43.53794" lon="5.54773">
        <ele>416</ele>
        <time>2022-10-15T11:09:39+02:00</time>
      </trkpt>
      <trkpt lat="43.53795" lon="5.54804">
        <ele>423</ele>
        <time>2022-10-15T11:10:08+02:00</time>
      </trkpt>
      <trkpt lat="43.53799" lon="5.54835">
        <ele>425</ele>
        <time>2022-10-15T11:10:30+02:00</time>
      </trkpt>
      <trkpt lat="43.53815" lon="5.54857">
        <ele>427</ele>
        <time>2022-10-15T11:10:52+02:00</time>
      </trkpt>
      <trkpt lat="43.53833" lon="5.54878">
        <ele>430</ele>
        <time>2022-10-15T11:11:15+02:00</time>
      </trkpt>
      <trkpt lat="43.53852" lon="5.54895">
        <ele>432</ele>
        <time>2022-10-15T11:11:36+02:00</time>
      </trkpt>
      <trkpt lat="43.53863" lon="5.54923">
        <ele>436</ele>
        <time>2022-10-15T11:12:01+02:00</time>
      </trkpt>
      <trkpt lat="43.53872" lon="5.54952">
        <ele>438</ele>
        <time>2022-10-15T11:12:22+02:00</time>
      </trkpt>
      <trkpt lat="43.53878" lon="5.54982">
        <ele>442</ele>
        <time>2022-10-15T11:12:48+02:00</time>
      </trkpt>
      <trkpt lat="43.53891" lon="5.55008">
        <ele>447</ele>
        <time>2022-10-15T11:13:16+02:00</time>
      </trkpt>
      <trkpt lat="43.539" lon="5.55038">
        <ele>453</ele>
        <time>2022-10-15T11:13:40+02:00</time>
      </trkpt>
      <trkpt lat="43.53906" lon="5.55068">
        <ele>455</ele>
        <time>2022-10-15T11:14:01+02:00</time>
      </trkpt>
      <trkpt lat="43.53913" lon="5.55098">
        <ele>459</ele>
        <time>2022-10-15T11:14:25+02:00</time>
      </trkpt>
      <trkpt lat="43.53916" lon="5.55129">
        <ele>464</ele>
        <time>2022-10-15T11:14:52+02:00</time>
      </trkpt>
      <trkpt lat="43.53911" lon="5.55161">
        <ele>466</ele>
        <time>2022-10-15T11:15:16+02:00</time>
      </trkpt>
      <trkpt lat="43.53912" lon="5.55192">
        <ele>467</ele>
        <time>2022-10-15T11:15:36+02:00</time>
      </trkpt>
      <trkpt lat="43.53923" lon="5.55219">
        <ele>467</ele>
        <time>2022-10-15T11:15:54+02:00</time>
      </trkpt>
      <trkpt lat="43.5393" lon="5.55248">
        <ele>470</ele>
        <time>2022-10-15T11:16:14+02:00</time>
      </trkpt>
      <trkpt lat="43.5393" lon="5.55279">
        <ele>473</ele>
        <time>2022-10-15T11:16:38+02:00</time>
      </trkpt>
      <trkpt lat="43.53916" lon="5.55304">
        <ele>475</ele>
        <time>2022-10-15T11:17:07+02:00</time>
      </trkpt>
      <trkpt lat="43.53917" lon="5.55335">
        <ele>481</ele>
        <time>2022-10-15T11:17:38+02:00</time>
      </trkpt>
      <trkpt lat="43.53902" lon="5.55358">
        <ele>485</ele>
        <time>2022-10-15T11:18:28+02:00</time>
      </trkpt>
      <trkpt lat="43.53883" lon="5.55377">
        <ele>488</ele>
        <time>2022-10-15T11:19:01+02:00</time>
      </trkpt>
      <trkpt lat="43.53869" lon="5.55402">
        <ele>494</ele>
        <time>2022-10-15T11:19:38+02:00</time>
      </trkpt>
      <trkpt lat="43.53854" lon="5.55425">
        <ele>501</ele>
        <time>2022-10-15T11:20:11+02:00</time>
      </trkpt>
      <trkpt lat="43.53852" lon="5.55456">
        <ele>511</ele>
        <time>2022-10-15T11:20:57+02:00</time>
      </trkpt>
      <trkpt lat="43.53857" lon="5.55487">
        <ele>524</ele>
        <time>2022-10-15T11:21:49+02:00</time>
      </trkpt>
      <trkpt lat="43.53858" lon="5.55518">
        <ele>533</ele>
        <time>2022-10-15T11:22:35+02:00</time>
      </trkpt>
      <trkpt lat="43.53846" lon="5.55546">
        <ele>539</ele>
        <time>2022-10-15T11:23:16+02:00</time>
      </trkpt>
      <trkpt lat="43.53843" lon="5.55577">
        <ele>544</ele>
        <time>2022-10-15T11:23:59+02:00</time>
      </trkpt>
      <trkpt lat="43.5384" lon="5.55608">
        <ele>549</ele>
        <time>2022-10-15T11:24:36+02:00</time>
      </trkpt>
      <trkpt lat="43.5384" lon="5.5564">
        <ele>555</ele>
        <time>2022-10-15T11:25:12+02:00</time>
      </trkpt>
      <trkpt lat="43.53843" lon="5.55671">
        <ele>562</ele>
        <time>2022-10-15T11:25:49+02:00</time>
      </trkpt>
      <trkpt lat="43.5385" lon="5.55701">
        <ele>567</ele>
        <time>2022-10-15T11:26:18+02:00</time>
      </trkpt>
      <trkpt lat="43.53865" lon="5.55725">
        <ele>570</ele>
        <time>2022-10-15T11:26:41+02:00</time>
      </trkpt>
      <trkpt lat="43.5387" lon="5.55756">
        <ele>576</ele>
        <time>2022-10-15T11:27:13+02:00</time>
      </trkpt>
      <trkpt lat="43.5388" lon="5.55784">
        <ele>577</ele>
        <time>2022-10-15T11:27:41+02:00</time>
      </trkpt>
      <trkpt lat="43.53875" lon="5.55816">
        <ele>580</ele>
        <time>2022-10-15T11:28:11+02:00</time>
      </trkpt>
      <trkpt lat="43.53869" lon="5.55845">
        <ele>585</ele>
        <time>2022-10-15T11:28:42+02:00</time>
      </trkpt>
      <trkpt lat="43.53871" lon="5.55876">
        <ele>589</ele>
        <time>2022-10-15T11:29:10+02:00</time>
      </trkpt>
      <trkpt lat="43.53872" lon="5.55908">
        <ele>589</ele>
        <time>2022-10-15T11:29:38+02:00</time>
      </trkpt>
      <trkpt lat="43.53869" lon="5.55939">
        <ele>589</ele>
        <time>2022-10-15T11:30:37+02:00</time>
      </trkpt>
      <trkpt lat="43.53873" lon="5.55971">
        <ele>590</ele>
        <time>2022-10-15T11:31:05+02:00</time>
      </trkpt>
      <trkpt lat="43.5387" lon="5.56002">
        <ele>594</ele>
        <time>2022-10-15T11:31:32+02:00</time>
      </trkpt>
      <trkpt lat="43.53874" lon="5.56034">
        <ele>596</ele>
        <time>2022-10-15T11:32:00+02:00</time>
      </trkpt>
      <trkpt lat="43.53879" lon="5.56066">
        <ele>600</ele>
        <time>2022-10-15T11:32:23+02:00</time>
      </trkpt>
      <trkpt lat="43.53876" lon="5.56097">
        <ele>599</ele>
        <time>2022-10-15T11:32:44+02:00</time>
      </trkpt>
      <trkpt lat="43.53873" lon="5.56128">
        <ele>598</ele>
        <time>2022-10-15T11:33:07+02:00</time>
      </trkpt>
      <trkpt lat="43.53854" lon="5.56146">
        <ele>596</ele>
        <time>2022-10-15T11:33:23+02:00</time>
      </trkpt>
      <trkpt lat="43.53842" lon="5.56172">
        <ele>590</ele>
        <time>2022-10-15T11:33:47+02:00</time>
      </trkpt>
      <trkpt lat="43.53834" lon="5.56203">
        <ele>591</ele>
        <time>2022-10-15T11:34:10+02:00</time>
      </trkpt>
      <trkpt lat="43.53827" lon="5.56233">
        <ele>589</ele>
        <time>2022-10-15T11:34:33+02:00</time>
      </trkpt>
      <trkpt lat="43.53831" lon="5.56264">
        <ele>589</ele>
        <time>2022-10-15T11:34:49+02:00</time>
      </trkpt>
      <trkpt lat="43.53834" lon="5.56296">
        <ele>591</ele>
        <time>2022-10-15T11:35:05+02:00</time>
      </trkpt>
      <trkpt lat="43.5383" lon="5.56328">
        <ele>592</ele>
        <time>2022-10-15T11:35:24+02:00</time>
      </trkpt>
      <trkpt lat="43.53832" lon="5.5636">
        <ele>589</ele>
        <time>2022-10-15T11:35:51+02:00</time>
      </trkpt>
      <trkpt lat="43.53837" lon="5.56391">
        <ele>592</ele>
        <time>2022-10-15T11:36:14+02:00</time>
      </trkpt>
      <trkpt lat="43.53845" lon="5.56421">
        <ele>596</ele>
        <time>2022-10-15T11:36:40+02:00</time>
      </trkpt>
      <trkpt lat="43.53845" lon="5.56452">
        <ele>599</ele>
        <time>2022-10-15T11:37:08+02:00</time>
      </trkpt>
      <trkpt lat="43.53854" lon="5.56482">
        <ele>604</ele>
        <time>2022-10-15T11:37:36+02:00</time>
      </trkpt>
      <trkpt lat="43.53853" lon="5.56514">
        <ele>607</ele>
        <time>2022-10-15T11:38:08+02:00</time>
      </trkpt>
      <trkpt lat="43.53864" lon="5.56542">
        <ele>613</ele>
        <time>2022-10-15T11:38:32+02:00</time>
      </trkpt>
      <trkpt lat="43.53861" lon="5.56572">
        <ele>621</ele>
        <time>2022-10-15T11:39:05+02:00</time>
      </trkpt>
      <trkpt lat="43.53859" lon="5.56604">
        <ele>624</ele>
        <time>2022-10-15T11:39:36+02:00</time>
      </trkpt>
      <trkpt lat="43.53859" lon="5.56635">
        <ele>628</ele>
        <time>2022-10-15T11:40:06+02:00</time>
      </trkpt>
      <trkpt lat="43.53852" lon="5.56666">
        <ele>626</ele>
        <time>2022-10-15T11:42:39+02:00</time>
      </trkpt>
      <trkpt lat="43.53852" lon="5.56698">
        <ele>625</ele>
        <time>2022-10-15T11:43:10+02:00</time>
      </trkpt>
      <trkpt lat="43.53843" lon="5.56727">
        <ele>626</ele>
        <time>2022-10-15T11:43:36+02:00</time>
      </trkpt>
      <trkpt lat="43.53834" lon="5.56756">
        <ele>624</ele>
        <time>2022-10-15T11:44:13+02:00</time>
      </trkpt>
      <trkpt lat="43.53824" lon="5.56784">
        <ele>622</ele>
        <time>2022-10-15T11:44:59+02:00</time>
      </trkpt>
      <trkpt lat="43.53813" lon="5.56812">
        <ele>627</ele>
        <time>2022-10-15T11:45:32+02:00</time>
      </trkpt>
      <trkpt lat="43.53801" lon="5.56838">
        <ele>630</ele>
        <time>2022-10-15T11:46:07+02:00</time>
      </trkpt>
      <trkpt lat="43.53791" lon="5.56867">
        <ele>636</ele>
        <time>2022-10-15T11:46:34+02:00</time>
      </trkpt>
      <trkpt lat="43.53775" lon="5.56888">
        <ele>637</ele>
        <time>2022-10-15T11:47:05+02:00</time>
      </trkpt>
      <trkpt lat="43.53763" lon="5.56915">
        <ele>636</ele>
        <time>2022-10-15T11:47:32+02:00</time>
      </trkpt>
      <trkpt lat="43.53751" lon="5.56942">
        <ele>640</ele>
        <time>2022-10-15T11:48:01+02:00</time>
      </trkpt>
      <trkpt lat="43.53747" lon="5.56972">
        <ele>649</ele>
        <time>2022-10-15T11:48:28+02:00</time>
      </trkpt>
      <trkpt lat="43.53735" lon="5.56999">
        <ele>654</ele>
        <time>2022-10-15T11:48:58+02:00</time>
      </trkpt>
      <trkpt lat="43.53718" lon="5.5702">
        <ele>658</ele>
        <time>2022-10-15T11:49:34+02:00</time>
      </trkpt>
      <trkpt lat="43.53698" lon="5.57036">
        <ele>662</ele>
        <time>2022-10-15T11:50:13+02:00</time>
      </trkpt>
      <trkpt lat="43.53684" lon="5.5706">
        <ele>668</ele>
        <time>2022-10-15T11:50:55+02:00</time>
      </trkpt>
      <trkpt lat="43.53667" lon="5.57082">
        <ele>673</ele>
        <time>2022-10-15T11:51:34+02:00</time>
      </trkpt>
      <trkpt lat="43.53657" lon="5.5711">
        <ele>679</ele>
        <time>2022-10-15T11:52:11+02:00</time>
      </trkpt>
      <trkpt lat="43.53651" lon="5.5714">
        <ele>688</ele>
        <time>2022-10-15T11:52:46+02:00</time>
      </trkpt>
      <trkpt lat="43.53638" lon="5.57166">
        <ele>700</ele>
        <time>2022-10-15T11:53:31+02:00</time>
      </trkpt>
      <trkpt lat="43.5362" lon="5.57184">
        <ele>707</ele>
        <time>2022-10-15T11:54:27+02:00</time>
      </trkpt>
      <trkpt lat="43.53605" lon="5.57208">
        <ele>714</ele>
        <time>2022-10-15T11:55:07+02:00</time>
      </trkpt>
      <trkpt lat="43.53582" lon="5.57204">
        <ele>714</ele>
        <time>2022-10-15T11:55:53+02:00</time>
      </trkpt>
      <trkpt lat="43.53565" lon="5.57225">
        <ele>716</ele>
        <time>2022-10-15T11:56:25+02:00</time>
      </trkpt>
      <trkpt lat="43.53551" lon="5.57249">
        <ele>725</ele>
        <time>2022-10-15T11:56:58+02:00</time>
      </trkpt>
      <trkpt lat="43.53533" lon="5.5727">
        <ele>729</ele>
        <time>2022-10-15T11:57:29+02:00</time>
      </trkpt>
      <trkpt lat="43.53517" lon="5.57291">
        <ele>734</ele>
        <time>2022-10-15T11:58:09+02:00</time>
      </trkpt>
      <trkpt lat="43.53503" lon="5.57316">
        <ele>739</ele>
        <time>2022-10-15T11:58:45+02:00</time>
      </trkpt>
      <trkpt lat="43.53481" lon="5.57321">
        <ele>742</ele>
        <time>2022-10-15T11:59:56+02:00</time>
      </trkpt>
      <trkpt lat="43.53464" lon="5.57341">
        <ele>750</ele>
        <time>2022-10-15T12:00:33+02:00</time>
      </trkpt>
      <trkpt lat="43.53444" lon="5.57358">
        <ele>756</ele>
        <time>2022-10-15T12:01:10+02:00</time>
      </trkpt>
      <trkpt lat="43.53424" lon="5.57372">
        <ele>761</ele>
        <time>2022-10-15T12:01:50+02:00</time>
      </trkpt>
      <trkpt lat="43.53405" lon="5.57389">
        <ele>765</ele>
        <time>2022-10-15T12:02:30+02:00</time>
      </trkpt>
      <trkpt lat="43.53384" lon="5.57402">
        <ele>771</ele>
        <time>2022-10-15T12:03:15+02:00</time>
      </trkpt>
      <trkpt lat="43.53375" lon="5.57431">
        <ele>782</ele>
        <time>2022-10-15T12:04:05+02:00</time>
      </trkpt>
      <trkpt lat="43.53363" lon="5.57457">
        <ele>795</ele>
        <time>2022-10-15T12:04:54+02:00</time>
      </trkpt>
      <trkpt lat="43.53343" lon="5.57441">
        <ele>796</ele>
        <time>2022-10-15T12:05:52+02:00</time>
      </trkpt>
      <trkpt lat="43.53332" lon="5.57468">
        <ele>804</ele>
        <time>2022-10-15T12:06:55+02:00</time>
      </trkpt>
      <trkpt lat="43.53311" lon="5.57479">
        <ele>814</ele>
        <time>2022-10-15T12:07:36+02:00</time>
      </trkpt>
      <trkpt lat="43.53297" lon="5.57503">
        <ele>825</ele>
        <time>2022-10-15T12:08:20+02:00</time>
      </trkpt>
      <trkpt lat="43.53281" lon="5.57527">
        <ele>836</ele>
        <time>2022-10-15T12:09:10+02:00</time>
      </trkpt>
      <trkpt lat="43.53262" lon="5.57543">
        <ele>846</ele>
        <time>2022-10-15T12:10:07+02:00</time>
      </trkpt>
      <trkpt lat="43.53247" lon="5.57566">
        <ele>856</ele>
        <time>2022-10-15T12:11:01+02:00</time>
      </trkpt>
      <trkpt lat="43.53228" lon="5.57585">
        <ele>864</ele>
        <time>2022-10-15T12:12:09+02:00</time>
      </trkpt>
      <trkpt lat="43.5322" lon="5.57614">
        <ele>871</ele>
        <time>2022-10-15T12:13:00+02:00</time>
      </trkpt>
      <trkpt lat="43.53213" lon="5.57644">
        <ele>874</ele>
        <time>2022-10-15T12:13:38+02:00</time>
      </trkpt>
      <trkpt lat="43.53203" lon="5.57672">
        <ele>877</ele>
        <time>2022-10-15T12:14:09+02:00</time>
      </trkpt>
      <trkpt lat="43.53198" lon="5.57702">
        <ele>880</ele>
        <time>2022-10-15T12:14:40+02:00</time>
      </trkpt>
      <trkpt lat="43.53188" lon="5.5773">
        <ele>882</ele>
        <time>2022-10-15T12:15:10+02:00</time>
      </trkpt>
      <trkpt lat="43.53188" lon="5.57762">
        <ele>882</ele>
        <time>2022-10-15T12:15:38+02:00</time>
      </trkpt>
      <trkpt lat="43.53187" lon="5.57793">
        <ele>884</ele>
        <time>2022-10-15T12:16:05+02:00</time>
      </trkpt>
      <trkpt lat="43.53173" lon="5.57819">
        <ele>888</ele>
        <time>2022-10-15T12:16:42+02:00</time>
      </trkpt>
      <trkpt lat="43.53157" lon="5.57842">
        <ele>887</ele>
        <time>2022-10-15T12:17:10+02:00</time>
      </trkpt>
      <trkpt lat="43.53174" lon="5.57863">
        <ele>890</ele>
        <time>2022-10-15T12:20:28+02:00</time>
      </trkpt>
      <trkpt lat="43.53161" lon="5.57889">
        <ele>896</ele>
        <time>2022-10-15T12:23:20+02:00</time>
      </trkpt>
      <trkpt lat="43.53144" lon="5.57909">
        <ele>895</ele>
        <time>2022-10-15T12:24:34+02:00</time>
      </trkpt>
      <trkpt lat="43.5313" lon="5.57935">
        <ele>908</ele>
        <time>2022-10-15T12:25:40+02:00</time>
      </trkpt>
      <trkpt lat="43.53123" lon="5.57964">
        <ele>912</ele>
        <time>2022-10-15T12:26:19+02:00</time>
      </trkpt>
      <trkpt lat="43.53109" lon="5.5799">
        <ele>924</ele>
        <time>2022-10-15T12:26:59+02:00</time>
      </trkpt>
      <trkpt lat="43.53127" lon="5.58011">
        <ele>924</ele>
        <time>2022-10-15T12:30:14+02:00</time>
      </trkpt>
      <trkpt lat="43.53124" lon="5.58042">
        <ele>923</ele>
        <time>2022-10-15T12:30:36+02:00</time>
      </trkpt>
      <trkpt lat="43.53124" lon="5.58074">
        <ele>916</ele>
        <time>2022-10-15T12:31:03+02:00</time>
      </trkpt>
      <trkpt lat="43.5313" lon="5.58104">
        <ele>916</ele>
        <time>2022-10-15T12:31:37+02:00</time>
      </trkpt>
      <trkpt lat="43.53118" lon="5.5813">
        <ele>918</ele>
        <time>2022-10-15T12:32:31+02:00</time>
      </trkpt>
      <trkpt lat="43.53128" lon="5.58102">
        <ele>914</ele>
        <time>2022-10-15T13:35:57+02:00</time>
      </trkpt>
      <trkpt lat="43.53126" lon="5.58071">
        <ele>916</ele>
        <time>2022-10-15T13:36:57+02:00</time>
      </trkpt>
      <trkpt lat="43.53125" lon="5.5804">
        <ele>922</ele>
        <time>2022-10-15T13:37:38+02:00</time>
      </trkpt>
      <trkpt lat="43.53128" lon="5.58007">
        <ele>925</ele>
        <time>2022-10-15T13:38:08+02:00</time>
      </trkpt>
      <trkpt lat="43.53123" lon="5.57976">
        <ele>922</ele>
        <time>2022-10-15T13:38:39+02:00</time>
      </trkpt>
      <trkpt lat="43.5313" lon="5.57946">
        <ele>913</ele>
        <time>2022-10-15T13:39:04+02:00</time>
      </trkpt>
      <trkpt lat="43.53139" lon="5.57918">
        <ele>905</ele>
        <time>2022-10-15T13:39:55+02:00</time>
      </trkpt>
      <trkpt lat="43.53145" lon="5.57888">
        <ele>895</ele>
        <time>2022-10-15T13:40:40+02:00</time>
      </trkpt>
      <trkpt lat="43.53167" lon="5.57882">
        <ele>894</ele>
        <time>2022-10-15T13:42:11+02:00</time>
      </trkpt>
      <trkpt lat="43.53166" lon="5.5785">
        <ele>891</ele>
        <time>2022-10-15T13:43:22+02:00</time>
      </trkpt>
      <trkpt lat="43.53172" lon="5.5782">
        <ele>890</ele>
        <time>2022-10-15T13:43:51+02:00</time>
      </trkpt>
      <trkpt lat="43.53186" lon="5.57794">
        <ele>885</ele>
        <time>2022-10-15T13:44:17+02:00</time>
      </trkpt>
      <trkpt lat="43.5319" lon="5.57763">
        <ele>882</ele>
        <time>2022-10-15T13:44:57+02:00</time>
      </trkpt>
      <trkpt lat="43.53189" lon="5.57732">
        <ele>880</ele>
        <time>2022-10-15T13:45:21+02:00</time>
      </trkpt>
      <trkpt lat="43.53199" lon="5.57703">
        <ele>879</ele>
        <time>2022-10-15T13:45:49+02:00</time>
      </trkpt>
      <trkpt lat="43.53205" lon="5.57673">
        <ele>877</ele>
        <time>2022-10-15T13:46:17+02:00</time>
      </trkpt>
      <trkpt lat="43.53214" lon="5.57644">
        <ele>873</ele>
        <time>2022-10-15T13:46:48+02:00</time>
      </trkpt>
      <trkpt lat="43.5322" lon="5.57613">
        <ele>869</ele>
        <time>2022-10-15T13:47:17+02:00</time>
      </trkpt>
      <trkpt lat="43.5323" lon="5.57585">
        <ele>863</ele>
        <time>2022-10-15T13:47:58+02:00</time>
      </trkpt>
      <trkpt lat="43.53248" lon="5.57566">
        <ele>854</ele>
        <time>2022-10-15T13:48:47+02:00</time>
      </trkpt>
      <trkpt lat="43.53264" lon="5.57543">
        <ele>846</ele>
        <time>2022-10-15T13:49:36+02:00</time>
      </trkpt>
      <trkpt lat="43.53283" lon="5.57525">
        <ele>835</ele>
        <time>2022-10-15T13:50:18+02:00</time>
      </trkpt>
      <trkpt lat="43.53299" lon="5.57502">
        <ele>825</ele>
        <time>2022-10-15T13:50:50+02:00</time>
      </trkpt>
      <trkpt lat="43.53315" lon="5.5748">
        <ele>813</ele>
        <time>2022-10-15T13:51:29+02:00</time>
      </trkpt>
      <trkpt lat="43.53336" lon="5.57467">
        <ele>806</ele>
        <time>2022-10-15T13:52:27+02:00</time>
      </trkpt>
      <trkpt lat="43.53358" lon="5.57457">
        <ele>795</ele>
        <time>2022-10-15T13:53:29+02:00</time>
      </trkpt>
      <trkpt lat="43.5337" lon="5.5743">
        <ele>785</ele>
        <time>2022-10-15T13:54:02+02:00</time>
      </trkpt>
      <trkpt lat="43.53385" lon="5.57407">
        <ele>773</ele>
        <time>2022-10-15T13:54:39+02:00</time>
      </trkpt>
      <trkpt lat="43.53405" lon="5.57392">
        <ele>765</ele>
        <time>2022-10-15T13:55:17+02:00</time>
      </trkpt>
      <trkpt lat="43.53424" lon="5.57374">
        <ele>759</ele>
        <time>2022-10-15T13:55:48+02:00</time>
      </trkpt>
      <trkpt lat="43.53444" lon="5.57359">
        <ele>756</ele>
        <time>2022-10-15T13:56:17+02:00</time>
      </trkpt>
      <trkpt lat="43.53465" lon="5.57343">
        <ele>750</ele>
        <time>2022-10-15T13:56:45+02:00</time>
      </trkpt>
      <trkpt lat="43.53485" lon="5.57329">
        <ele>743</ele>
        <time>2022-10-15T13:57:09+02:00</time>
      </trkpt>
      <trkpt lat="43.53505" lon="5.57313">
        <ele>738</ele>
        <time>2022-10-15T13:57:35+02:00</time>
      </trkpt>
      <trkpt lat="43.5352" lon="5.57289">
        <ele>733</ele>
        <time>2022-10-15T13:58:06+02:00</time>
      </trkpt>
      <trkpt lat="43.53532" lon="5.57263">
        <ele>729</ele>
        <time>2022-10-15T13:58:32+02:00</time>
      </trkpt>
      <trkpt lat="43.53548" lon="5.5724">
        <ele>723</ele>
        <time>2022-10-15T13:58:55+02:00</time>
      </trkpt>
      <trkpt lat="43.53569" lon="5.57226">
        <ele>719</ele>
        <time>2022-10-15T13:59:29+02:00</time>
      </trkpt>
      <trkpt lat="43.53587" lon="5.57206">
        <ele>714</ele>
        <time>2022-10-15T14:00:02+02:00</time>
      </trkpt>
      <trkpt lat="43.53605" lon="5.57188">
        <ele>708</ele>
        <time>2022-10-15T14:00:28+02:00</time>
      </trkpt>
      <trkpt lat="43.53627" lon="5.57178">
        <ele>704</ele>
        <time>2022-10-15T14:01:05+02:00</time>
      </trkpt>
      <trkpt lat="43.53644" lon="5.57157">
        <ele>695</ele>
        <time>2022-10-15T14:01:54+02:00</time>
      </trkpt>
      <trkpt lat="43.53656" lon="5.5713">
        <ele>686</ele>
        <time>2022-10-15T14:02:33+02:00</time>
      </trkpt>
      <trkpt lat="43.53661" lon="5.57099">
        <ele>678</ele>
        <time>2022-10-15T14:02:56+02:00</time>
      </trkpt>
      <trkpt lat="43.53674" lon="5.57074">
        <ele>672</ele>
        <time>2022-10-15T14:03:29+02:00</time>
      </trkpt>
      <trkpt lat="43.53691" lon="5.57053">
        <ele>665</ele>
        <time>2022-10-15T14:03:59+02:00</time>
      </trkpt>
      <trkpt lat="43.53706" lon="5.57029">
        <ele>659</ele>
        <time>2022-10-15T14:04:37+02:00</time>
      </trkpt>
      <trkpt lat="43.53725" lon="5.57011">
        <ele>656</ele>
        <time>2022-10-15T14:05:08+02:00</time>
      </trkpt>
      <trkpt lat="43.53741" lon="5.56987">
        <ele>651</ele>
        <time>2022-10-15T14:05:33+02:00</time>
      </trkpt>
      <trkpt lat="43.53753" lon="5.5696">
        <ele>647</ele>
        <time>2022-10-15T14:06:00+02:00</time>
      </trkpt>
      <trkpt lat="43.53757" lon="5.56929">
        <ele>639</ele>
        <time>2022-10-15T14:06:21+02:00</time>
      </trkpt>
      <trkpt lat="43.53774" lon="5.56909">
        <ele>637</ele>
        <time>2022-10-15T14:06:49+02:00</time>
      </trkpt>
      <trkpt lat="43.53781" lon="5.56879">
        <ele>639</ele>
        <time>2022-10-15T14:07:15+02:00</time>
      </trkpt>
      <trkpt lat="43.53797" lon="5.56856">
        <ele>637</ele>
        <time>2022-10-15T14:07:44+02:00</time>
      </trkpt>
      <trkpt lat="43.53808" lon="5.56828">
        <ele>633</ele>
        <time>2022-10-15T14:08:08+02:00</time>
      </trkpt>
      <trkpt lat="43.53818" lon="5.56799">
        <ele>627</ele>
        <time>2022-10-15T14:08:35+02:00</time>
      </trkpt>
      <trkpt lat="43.53825" lon="5.56769">
        <ele>623</ele>
        <time>2022-10-15T14:08:59+02:00</time>
      </trkpt>
      <trkpt lat="43.53836" lon="5.56741">
        <ele>623</ele>
        <time>2022-10-15T14:09:29+02:00</time>
      </trkpt>
      <trkpt lat="43.5385" lon="5.56716">
        <ele>626</ele>
        <time>2022-10-15T14:09:52+02:00</time>
      </trkpt>
      <trkpt lat="43.53854" lon="5.56685">
        <ele>633</ele>
        <time>2022-10-15T14:11:45+02:00</time>
      </trkpt>
      <trkpt lat="43.53853" lon="5.56654">
        <ele>626</ele>
        <time>2022-10-15T14:12:11+02:00</time>
      </trkpt>
      <trkpt lat="43.53862" lon="5.56625">
        <ele>627</ele>
        <time>2022-10-15T14:12:35+02:00</time>
      </trkpt>
      <trkpt lat="43.53858" lon="5.56594">
        <ele>622</ele>
        <time>2022-10-15T14:12:58+02:00</time>
      </trkpt>
      <trkpt lat="43.53865" lon="5.56564">
        <ele>620</ele>
        <time>2022-10-15T14:13:30+02:00</time>
      </trkpt>
      <trkpt lat="43.53859" lon="5.56534">
        <ele>613</ele>
        <time>2022-10-15T14:14:04+02:00</time>
      </trkpt>
      <trkpt lat="43.53852" lon="5.56504">
        <ele>606</ele>
        <time>2022-10-15T14:14:33+02:00</time>
      </trkpt>
      <trkpt lat="43.53851" lon="5.56472">
        <ele>603</ele>
        <time>2022-10-15T14:15:06+02:00</time>
      </trkpt>
      <trkpt lat="43.53846" lon="5.56442">
        <ele>598</ele>
        <time>2022-10-15T14:15:32+02:00</time>
      </trkpt>
      <trkpt lat="43.53841" lon="5.5641">
        <ele>596</ele>
        <time>2022-10-15T14:15:57+02:00</time>
      </trkpt>
      <trkpt lat="43.53837" lon="5.56378">
        <ele>590</ele>
        <time>2022-10-15T14:16:18+02:00</time>
      </trkpt>
      <trkpt lat="43.53832" lon="5.56347">
        <ele>590</ele>
        <time>2022-10-15T14:16:49+02:00</time>
      </trkpt>
      <trkpt lat="43.53835" lon="5.56317">
        <ele>590</ele>
        <time>2022-10-15T14:17:12+02:00</time>
      </trkpt>
      <trkpt lat="43.53833" lon="5.56285">
        <ele>593</ele>
        <time>2022-10-15T14:17:38+02:00</time>
      </trkpt>
      <trkpt lat="43.53831" lon="5.56254">
        <ele>588</ele>
        <time>2022-10-15T14:18:00+02:00</time>
      </trkpt>
      <trkpt lat="43.53832" lon="5.56222">
        <ele>588</ele>
        <time>2022-10-15T14:18:27+02:00</time>
      </trkpt>
      <trkpt lat="43.53836" lon="5.56191">
        <ele>591</ele>
        <time>2022-10-15T14:18:50+02:00</time>
      </trkpt>
      <trkpt lat="43.53847" lon="5.56162">
        <ele>592</ele>
        <time>2022-10-15T14:19:13+02:00</time>
      </trkpt>
      <trkpt lat="43.53864" lon="5.5614">
        <ele>596</ele>
        <time>2022-10-15T14:19:34+02:00</time>
      </trkpt>
      <trkpt lat="43.53881" lon="5.5612">
        <ele>600</ele>
        <time>2022-10-15T14:19:59+02:00</time>
      </trkpt>
      <trkpt lat="43.53899" lon="5.561">
        <ele>601</ele>
        <time>2022-10-15T14:20:26+02:00</time>
      </trkpt>
      <trkpt lat="43.53902" lon="5.56069">
        <ele>601</ele>
        <time>2022-10-15T14:20:49+02:00</time>
      </trkpt>
      <trkpt lat="43.53892" lon="5.5604">
        <ele>601</ele>
        <time>2022-10-15T14:21:12+02:00</time>
      </trkpt>
      <trkpt lat="43.53883" lon="5.56011">
        <ele>598</ele>
        <time>2022-10-15T14:21:33+02:00</time>
      </trkpt>
      <trkpt lat="43.53877" lon="5.5598">
        <ele>592</ele>
        <time>2022-10-15T14:21:57+02:00</time>
      </trkpt>
      <trkpt lat="43.53876" lon="5.55949">
        <ele>589</ele>
        <time>2022-10-15T14:22:25+02:00</time>
      </trkpt>
      <trkpt lat="43.53874" lon="5.55918">
        <ele>588</ele>
        <time>2022-10-15T14:22:55+02:00</time>
      </trkpt>
      <trkpt lat="43.53873" lon="5.55887">
        <ele>586</ele>
        <time>2022-10-15T14:23:22+02:00</time>
      </trkpt>
      <trkpt lat="43.53873" lon="5.55855">
        <ele>586</ele>
        <time>2022-10-15T14:23:45+02:00</time>
      </trkpt>
      <trkpt lat="43.53879" lon="5.55824">
        <ele>581</ele>
        <time>2022-10-15T14:24:08+02:00</time>
      </trkpt>
      <trkpt lat="43.53881" lon="5.55792">
        <ele>576</ele>
        <time>2022-10-15T14:24:32+02:00</time>
      </trkpt>
      <trkpt lat="43.53874" lon="5.55762">
        <ele>575</ele>
        <time>2022-10-15T14:25:00+02:00</time>
      </trkpt>
      <trkpt lat="43.53871" lon="5.55731">
        <ele>571</ele>
        <time>2022-10-15T14:25:28+02:00</time>
      </trkpt>
      <trkpt lat="43.53854" lon="5.55709">
        <ele>570</ele>
        <time>2022-10-15T14:25:55+02:00</time>
      </trkpt>
      <trkpt lat="43.53843" lon="5.55681">
        <ele>566</ele>
        <time>2022-10-15T14:26:22+02:00</time>
      </trkpt>
      <trkpt lat="43.53842" lon="5.55649">
        <ele>559</ele>
        <time>2022-10-15T14:26:50+02:00</time>
      </trkpt>
      <trkpt lat="43.53822" lon="5.55633">
        <ele>550</ele>
        <time>2022-10-15T14:29:08+02:00</time>
      </trkpt>
      <trkpt lat="43.538" lon="5.55634">
        <ele>538</ele>
        <time>2022-10-15T14:30:01+02:00</time>
      </trkpt>
      <trkpt lat="43.53778" lon="5.55644">
        <ele>528</ele>
        <time>2022-10-15T14:30:48+02:00</time>
      </trkpt>
      <trkpt lat="43.53758" lon="5.55658">
        <ele>523</ele>
        <time>2022-10-15T14:31:25+02:00</time>
      </trkpt>
      <trkpt lat="43.53736" lon="5.55669">
        <ele>516</ele>
        <time>2022-10-15T14:31:56+02:00</time>
      </trkpt>
      <trkpt lat="43.53713" lon="5.55668">
        <ele>508</ele>
        <time>2022-10-15T14:32:31+02:00</time>
      </trkpt>
      <trkpt lat="43.53691" lon="5.55671">
        <ele>498</ele>
        <time>2022-10-15T14:33:11+02:00</time>
      </trkpt>
      <trkpt lat="43.53668" lon="5.55663">
        <ele>491</ele>
        <time>2022-10-15T14:34:05+02:00</time>
      </trkpt>
      <trkpt lat="43.53646" lon="5.55654">
        <ele>486</ele>
        <time>2022-10-15T14:34:32+02:00</time>
      </trkpt>
      <trkpt lat="43.53625" lon="5.55642">
        <ele>481</ele>
        <time>2022-10-15T14:34:57+02:00</time>
      </trkpt>
      <trkpt lat="43.53603" lon="5.55632">
        <ele>476</ele>
        <time>2022-10-15T14:35:17+02:00</time>
      </trkpt>
      <trkpt lat="43.53588" lon="5.55607">
        <ele>471</ele>
        <time>2022-10-15T14:35:35+02:00</time>
      </trkpt>
      <trkpt lat="43.53568" lon="5.5559">
        <ele>467</ele>
        <time>2022-10-15T14:36:42+02:00</time>
      </trkpt>
      <trkpt lat="43.53549" lon="5.55573">
        <ele>463</ele>
        <time>2022-10-15T14:37:02+02:00</time>
      </trkpt>
      <trkpt lat="43.53532" lon="5.55551">
        <ele>458</ele>
        <time>2022-10-15T14:37:23+02:00</time>
      </trkpt>
      <trkpt lat="43.53535" lon="5.55518">
        <ele>455</ele>
        <time>2022-10-15T14:37:41+02:00</time>
      </trkpt>
      <trkpt lat="43.53528" lon="5.55488">
        <ele>450</ele>
        <time>2022-10-15T14:37:58+02:00</time>
      </trkpt>
      <trkpt lat="43.53522" lon="5.55456">
        <ele>444</ele>
        <time>2022-10-15T14:38:16+02:00</time>
      </trkpt>
      <trkpt lat="43.53521" lon="5.55424">
        <ele>440</ele>
        <time>2022-10-15T14:38:33+02:00</time>
      </trkpt>
      <trkpt lat="43.53523" lon="5.55391">
        <ele>436</ele>
        <time>2022-10-15T14:38:50+02:00</time>
      </trkpt>
      <trkpt lat="43.5351" lon="5.55365">
        <ele>432</ele>
        <time>2022-10-15T14:39:07+02:00</time>
      </trkpt>
      <trkpt lat="43.53497" lon="5.55339">
        <ele>426</ele>
        <time>2022-10-15T14:39:26+02:00</time>
      </trkpt>
      <trkpt lat="43.53494" lon="5.55308">
        <ele>424</ele>
        <time>2022-10-15T14:39:46+02:00</time>
      </trkpt>
      <trkpt lat="43.53503" lon="5.55279">
        <ele>423</ele>
        <time>2022-10-15T14:40:05+02:00</time>
      </trkpt>
      <trkpt lat="43.53502" lon="5.55247">
        <ele>420</ele>
        <time>2022-10-15T14:40:23+02:00</time>
      </trkpt>
      <trkpt lat="43.53492" lon="5.55219">
        <ele>416</ele>
        <time>2022-10-15T14:40:46+02:00</time>
      </trkpt>
      <trkpt lat="43.53493" lon="5.55186">
        <ele>415</ele>
        <time>2022-10-15T14:41:06+02:00</time>
      </trkpt>
      <trkpt lat="43.53489" lon="5.55155">
        <ele>413</ele>
        <time>2022-10-15T14:41:22+02:00</time>
      </trkpt>
      <trkpt lat="43.53481" lon="5.55124">
        <ele>411</ele>
        <time>2022-10-15T14:41:38+02:00</time>
      </trkpt>
      <trkpt lat="43.53489" lon="5.55095">
        <ele>411</ele>
        <time>2022-10-15T14:41:56+02:00</time>
      </trkpt>
      <trkpt lat="43.53494" lon="5.55064">
        <ele>411</ele>
        <time>2022-10-15T14:42:14+02:00</time>
      </trkpt>
      <trkpt lat="43.53493" lon="5.55033">
        <ele>408</ele>
        <time>2022-10-15T14:42:31+02:00</time>
      </trkpt>
      <trkpt lat="43.53498" lon="5.55001">
        <ele>409</ele>
        <time>2022-10-15T14:42:46+02:00</time>
      </trkpt>
      <trkpt lat="43.53501" lon="5.5497">
        <ele>407</ele>
        <time>2022-10-15T14:43:01+02:00</time>
      </trkpt>
      <trkpt lat="43.53499" lon="5.54938">
        <ele>405</ele>
        <time>2022-10-15T14:43:17+02:00</time>
      </trkpt>
      <trkpt lat="43.53503" lon="5.54906">
        <ele>405</ele>
        <time>2022-10-15T14:43:33+02:00</time>
      </trkpt>
      <trkpt lat="43.535" lon="5.54874">
        <ele>400</ele>
        <time>2022-10-15T14:43:50+02:00</time>
      </trkpt>
      <trkpt lat="43.5349" lon="5.54846">
        <ele>395</ele>
        <time>2022-10-15T14:44:06+02:00</time>
      </trkpt>
      <trkpt lat="43.53482" lon="5.54817">
        <ele>390</ele>
        <time>2022-10-15T14:44:22+02:00</time>
      </trkpt>
      <trkpt lat="43.53478" lon="5.54785">
        <ele>388</ele>
        <time>2022-10-15T14:44:38+02:00</time>
      </trkpt>
      <trkpt lat="43.5348" lon="5.54754">
        <ele>385</ele>
        <time>2022-10-15T14:44:54+02:00</time>
      </trkpt>
      <trkpt lat="43.53475" lon="5.54723">
        <ele>386</ele>
        <time>2022-10-15T14:45:10+02:00</time>
      </trkpt>
      <trkpt lat="43.53476" lon="5.54692">
        <ele>388</ele>
        <time>2022-10-15T14:45:27+02:00</time>
      </trkpt>
      <trkpt lat="43.53464" lon="5.54665">
        <ele>387</ele>
        <time>2022-10-15T14:45:46+02:00</time>
      </trkpt>
      <trkpt lat="43.5345" lon="5.54638">
        <ele>385</ele>
        <time>2022-10-15T14:46:03+02:00</time>
      </trkpt>
      <trkpt lat="43.53436" lon="5.54614">
        <ele>382</ele>
        <time>2022-10-15T14:46:18+02:00</time>
      </trkpt>
      <trkpt lat="43.53423" lon="5.54588">
        <ele>381</ele>
        <time>2022-10-15T14:46:34+02:00</time>
      </trkpt>
      <trkpt lat="43.53417" lon="5.54558">
        <ele>382</ele>
        <time>2022-10-15T14:46:50+02:00</time>
      </trkpt>
      <trkpt lat="43.53415" lon="5.54526">
        <ele>380</ele>
        <time>2022-10-15T14:47:08+02:00</time>
      </trkpt>
      <trkpt lat="43.53424" lon="5.54495">
        <ele>382</ele>
        <time>2022-10-15T14:47:27+02:00</time>
      </trkpt>
      <trkpt lat="43.53432" lon="5.54466">
        <ele>384</ele>
        <time>2022-10-15T14:47:46+02:00</time>
      </trkpt>
      <trkpt lat="43.53439" lon="5.54437">
        <ele>388</ele>
        <time>2022-10-15T14:48:04+02:00</time>
      </trkpt>
      <trkpt lat="43.53448" lon="5.54407">
        <ele>390</ele>
        <time>2022-10-15T14:48:21+02:00</time>
      </trkpt>
      <trkpt lat="43.53457" lon="5.54378">
        <ele>390</ele>
        <time>2022-10-15T14:48:39+02:00</time>
      </trkpt>
      <trkpt lat="43.53459" lon="5.54346">
        <ele>392</ele>
        <time>2022-10-15T14:48:58+02:00</time>
      </trkpt>
      <trkpt lat="43.53455" lon="5.54313">
        <ele>394</ele>
        <time>2022-10-15T14:49:18+02:00</time>
      </trkpt>
      <trkpt lat="43.53455" lon="5.5428">
        <ele>392</ele>
        <time>2022-10-15T14:49:36+02:00</time>
      </trkpt>
      <trkpt lat="43.53459" lon="5.5425">
        <ele>392</ele>
        <time>2022-10-15T14:49:52+02:00</time>
      </trkpt>
      <trkpt lat="43.53465" lon="5.54219">
        <ele>391</ele>
        <time>2022-10-15T14:50:07+02:00</time>
      </trkpt>
      <trkpt lat="43.53467" lon="5.54188">
        <ele>390</ele>
        <time>2022-10-15T14:50:25+02:00</time>
      </trkpt>
      <trkpt lat="43.53473" lon="5.54157">
        <ele>390</ele>
        <time>2022-10-15T14:50:43+02:00</time>
      </trkpt>
      <trkpt lat="43.53481" lon="5.54127">
        <ele>387</ele>
        <time>2022-10-15T14:50:59+02:00</time>
      </trkpt>
      <trkpt lat="43.53483" lon="5.54094">
        <ele>385</ele>
        <time>2022-10-15T14:51:16+02:00</time>
      </trkpt>
      <trkpt lat="43.53487" lon="5.54062">
        <ele>384</ele>
        <time>2022-10-15T14:51:30+02:00</time>
      </trkpt>
      <trkpt lat="43.53488" lon="5.5403">
        <ele>381</ele>
        <time>2022-10-15T14:51:46+02:00</time>
      </trkpt>
      <trkpt lat="43.53483" lon="5.53999">
        <ele>377</ele>
        <time>2022-10-15T14:52:02+02:00</time>
      </trkpt>
      <trkpt lat="43.53481" lon="5.53967">
        <ele>376</ele>
        <time>2022-10-15T14:52:19+02:00</time>
      </trkpt>
      <trkpt lat="43.5349" lon="5.53937">
        <ele>376</ele>
        <time>2022-10-15T14:52:35+02:00</time>
      </trkpt>
      <trkpt lat="43.53492" lon="5.53905">
        <ele>374</ele>
        <time>2022-10-15T14:52:52+02:00</time>
      </trkpt>
      <trkpt lat="43.53489" lon="5.53873">
        <ele>373</ele>
        <time>2022-10-15T14:53:09+02:00</time>
      </trkpt>
      <trkpt lat="43.53491" lon="5.53842">
        <ele>373</ele>
        <time>2022-10-15T14:53:28+02:00</time>
      </trkpt>
      <trkpt lat="43.53495" lon="5.5381">
        <ele>372</ele>
        <time>2022-10-15T14:53:48+02:00</time>
      </trkpt>
      <trkpt lat="43.53505" lon="5.53781">
        <ele>371</ele>
        <time>2022-10-15T14:54:07+02:00</time>
      </trkpt>
      <trkpt lat="43.53516" lon="5.53753">
        <ele>371</ele>
        <time>2022-10-15T14:54:25+02:00</time>
      </trkpt>
      <trkpt lat="43.53529" lon="5.53727">
        <ele>371</ele>
        <time>2022-10-15T14:54:44+02:00</time>
      </trkpt>
      <trkpt lat="43.53543" lon="5.53702">
        <ele>372</ele>
        <time>2022-10-15T14:55:03+02:00</time>
      </trkpt>
      <trkpt lat="43.53557" lon="5.53675">
        <ele>371</ele>
        <time>2022-10-15T14:55:22+02:00</time>
      </trkpt>
      <trkpt lat="43.53572" lon="5.53652">
        <ele>371</ele>
        <time>2022-10-15T14:55:41+02:00</time>
      </trkpt>
      <trkpt lat="43.53588" lon="5.5363">
        <ele>371</ele>
        <time>2022-10-15T14:55:59+02:00</time>
      </trkpt>
      <trkpt lat="43.53609" lon="5.53617">
        <ele>371</ele>
        <time>2022-10-15T14:56:18+02:00</time>
      </trkpt>
      <trkpt lat="43.53632" lon="5.5361">
        <ele>371</ele>
        <time>2022-10-15T14:56:36+02:00</time>
      </trkpt>
      <trkpt lat="43.53653" lon="5.53598">
        <ele>372</ele>
        <time>2022-10-15T14:56:53+02:00</time>
      </trkpt>
      <trkpt lat="43.53672" lon="5.53582">
        <ele>372</ele>
        <time>2022-10-15T14:57:09+02:00</time>
      </trkpt>
      <trkpt lat="43.5369" lon="5.53562">
        <ele>371</ele>
        <time>2022-10-15T14:57:26+02:00</time>
      </trkpt>
      <trkpt lat="43.53709" lon="5.53544">
        <ele>369</ele>
        <time>2022-10-15T14:57:43+02:00</time>
      </trkpt>
      <trkpt lat="43.5373" lon="5.53531">
        <ele>369</ele>
        <time>2022-10-15T14:57:57+02:00</time>
      </trkpt>
      <trkpt lat="43.53752" lon="5.53523">
        <ele>368</ele>
        <time>2022-10-15T14:58:16+02:00</time>
      </trkpt>
      <trkpt lat="43.53774" lon="5.5353">
        <ele>368</ele>
        <time>2022-10-15T14:58:38+02:00</time>
      </trkpt>
      <trkpt lat="43.53793" lon="5.53548">
        <ele>367</ele>
        <time>2022-10-15T14:58:57+02:00</time>
      </trkpt>
      <trkpt lat="43.53812" lon="5.53566">
        <ele>367</ele>
        <time>2022-10-15T14:59:11+02:00</time>
      </trkpt>
      <trkpt lat="43.53831" lon="5.53583">
        <ele>365</ele>
        <time>2022-10-15T14:59:29+02:00</time>
      </trkpt>
      <trkpt lat="43.53854" lon="5.53593">
        <ele>364</ele>
        <time>2022-10-15T14:59:45+02:00</time>
      </trkpt>
      <trkpt lat="43.53876" lon="5.53589">
        <ele>360</ele>
        <time>2022-10-15T14:59:59+02:00</time>
      </trkpt>
      <trkpt lat="43.53898" lon="5.53576">
        <ele>358</ele>
        <time>2022-10-15T15:00:14+02:00</time>
      </trkpt>
      <trkpt lat="43.53921" lon="5.53569">
        <ele>352</ele>
        <time>2022-10-15T15:00:31+02:00</time>
      </trkpt>
      <trkpt lat="43.53937" lon="5.53592">
        <ele>346</ele>
        <time>2022-10-15T15:00:50+02:00</time>
      </trkpt>
      <trkpt lat="43.53954" lon="5.53615">
        <ele>343</ele>
        <time>2022-10-15T15:01:08+02:00</time>
      </trkpt>
      <trkpt lat="43.53973" lon="5.53633">
        <ele>335</ele>
        <time>2022-10-15T15:01:29+02:00</time>
      </trkpt>
      <trkpt lat="43.53994" lon="5.53648">
        <ele>322</ele>
        <time>2022-10-15T15:01:59+02:00</time>
      </trkpt>
      <trkpt lat="43.54017" lon="5.53653">
        <ele>311</ele>
        <time>2022-10-15T15:02:45+02:00</time>
      </trkpt>
      <trkpt lat="43.5404" lon="5.53655">
        <ele>305</ele>
        <time>2022-10-15T15:03:05+02:00</time>
      </trkpt>
      <trkpt lat="43.54063" lon="5.53656">
        <ele>305</ele>
        <time>2022-10-15T15:05:19+02:00</time>
      </trkpt>
      <trkpt lat="43.54083" lon="5.53641">
        <ele>298</ele>
        <time>2022-10-15T15:05:43+02:00</time>
      </trkpt>
      <trkpt lat="43.54104" lon="5.53628">
        <ele>297</ele>
        <time>2022-10-15T15:06:03+02:00</time>
      </trkpt>
      <trkpt lat="43.54124" lon="5.53612">
        <ele>305</ele>
        <time>2022-10-15T15:06:21+02:00</time>
      </trkpt>
      <trkpt lat="43.54144" lon="5.53594">
        <ele>319</ele>
        <time>2022-10-15T15:06:40+02:00</time>
      </trkpt>
      <trkpt lat="43.54159" lon="5.5357">
        <ele>330</ele>
        <time>2022-10-15T15:06:59+02:00</time>
      </trkpt>
      <trkpt lat="43.54161" lon="5.53539">
        <ele>336</ele>
        <time>2022-10-15T15:07:20+02:00</time>
      </trkpt>
      <trkpt lat="43.54156" lon="5.53508">
        <ele>342</ele>
        <time>2022-10-15T15:08:30+02:00</time>
      </trkpt>
      <trkpt lat="43.54145" lon="5.5348">
        <ele>342</ele>
        <time>2022-10-15T15:08:54+02:00</time>
      </trkpt>
      <trkpt lat="43.54149" lon="5.53448">
        <ele>345</ele>
        <time>2022-10-15T15:09:16+02:00</time>
      </trkpt>
      <trkpt lat="43.54161" lon="5.53419">
        <ele>349</ele>
        <time>2022-10-15T15:09:36+02:00</time>
      </trkpt>
      <trkpt lat="43.54167" lon="5.53387">
        <ele>352</ele>
        <time>2022-10-15T15:09:56+02:00</time>
      </trkpt>
      <trkpt lat="43.54171" lon="5.53356">
        <ele>353</ele>
        <time>2022-10-15T15:10:17+02:00</time>
      </trkpt>
      <trkpt lat="43.54172" lon="5.53324">
        <ele>354</ele>
        <time>2022-10-15T15:10:34+02:00</time>
      </trkpt>
      <trkpt lat="43.54167" lon="5.53293">
        <ele>352</ele>
        <time>2022-10-15T15:10:52+02:00</time>
      </trkpt>
      <trkpt lat="43.54158" lon="5.53263">
        <ele>351</ele>
        <time>2022-10-15T15:11:10+02:00</time>
      </trkpt>
      <trkpt lat="43.54142" lon="5.5324">
        <ele>351</ele>
        <time>2022-10-15T15:11:30+02:00</time>
      </trkpt>
    </trkseg>
  </trk>
</gpx>